Alpine Link — V7SZ7 — position and weather

sailwx.info

Track history (hours):
 
Tides and Currents Weather Stations Pressure Air Temp Water Temp Dewpoint Dewpoint Depression Visibility Wind Speed Wind Dir Waves Ship Positions

Alpine Link

Last reported at 2014-Jul-20 01:12 UTC. Time now 2014-Jul-22 07:25 UTC.
Position N 50°20' W 000°59'.

Length 183 m; draft 12.5 m.

Type: Tanker. MMSI: 538003758.

Date/timePositionNaut miles runAvg speedWind from/ knotsBaromVisibWave heightAir tempDewpointWater temp
2014-Jul-20 01:12N 50°20' W 000°59'2312.5
2014-Jul-19 23:23N 50°27' W 000°25'1814.2
2014-Jul-19 22:08N 50°32' E 000°02'914.7
2014-Jul-19 21:29N 50°34' E 000°16'1814.5
2014-Jul-19 20:14N 50°41' E 000°43'1014.0
2014-Jul-19 19:33N 50°46' E 000°55'1312.7
2014-Jul-19 18:33N 50°54' E 001°10'1211.7
2014-Jul-19 17:33N 51°03' E 001°23'1211.9
2014-Jul-19 16:33N 51°10' E 001°38'1312.7
2014-Jul-19 15:34N 51°20' E 001°51'1514.5
2014-Jul-19 14:33N 51°32' E 002°03'1515.3
2014-Jul-19 13:33N 51°44' E 002°20'9313.3
2014-Jul-19 06:33N 53°09' E 003°22'1313.3
2014-Jul-19 05:33N 53°21' E 003°29'1413.8
2014-Jul-19 04:33N 53°34' E 003°36'1313.4
2014-Jul-19 03:33N 53°46' E 003°47'1413.9
2014-Jul-19 02:32N 53°54' E 004°07'1313.4
2014-Jul-19 01:34N 54°01' E 004°26'1313.2
2014-Jul-19 00:33N 54°07' E 004°46'1413.2
2014-Jul-18 23:31N 54°18' E 004°59'1513.4
2014-Jul-18 22:26N 54°30' E 005°13'1313.6
2014-Jul-18 21:29N 54°42' E 005°23'1313.9
2014-Jul-18 20:33N 54°53' E 005°35'1414.0
2014-Jul-18 19:33N 55°05' E 005°47'1413.9
2014-Jul-18 18:34N 55°17' E 005°59'2823.9
2014-Jul-18 17:24N 55°41' E 006°24'1214.2
2014-Jul-18 16:32N 55°51' E 006°36'16012.3
2014-Jul-18 03:26N 57°49' E 009°55'1112.9
2014-Jul-18 02:33N 57°55' E 010°13'1312.9
2014-Jul-18 01:33N 58°02' E 010°34'1313.0
2014-Jul-18 00:32N 58°09' E 010°55'1111.2
2014-Jul-17 23:32N 58°16' E 011°12'0 0.0
2014-Jul-16 09:30N 58°15' E 011°12'1411.4
2014-Jul-16 08:16N 58°08' E 010°50'2413.8
2014-Jul-16 06:33N 57°56' E 010°11'27313.5
2014-Jul-15 10:20N 54°22' E 005°04'1514.4
2014-Jul-15 09:18N 54°10' E 004°51'1314.4
2014-Jul-15 08:24N 53°59' E 004°39'10614.7
2014-Jul-15 01:11N 52°30' E 003°02'1113.7
2014-Jul-15 00:25N 52°21' E 003°11'1113.4
2014-Jul-14 23:33N 52°12' E 003°23'1413.9
2014-Jul-14 22:33N 52°05' E 003°43'10 9.8
2014-Jul-14 21:33N 52°01' E 003°57'8 7.6
2014-Jul-14 20:32N 51°57' E 004°08'0 0.0
2014-Jul-14 19:29N 51°57' E 004°08'0 0.0
2014-Jul-14 18:32N 51°57' E 004°08'0 0.0
2014-Jul-14 17:26N 51°57' E 004°08'0 0.0
2014-Jul-14 16:20N 51°57' E 004°08'0 0.0
2014-Jul-14 15:14N 51°57' E 004°08'0 0.0
2014-Jul-14 14:32N 51°57' E 004°08'0 0.0
2014-Jul-14 13:23N 51°57' E 004°08'0 0.0
2014-Jul-14 12:32N 51°57' E 004°08'0 0.0
2014-Jul-14 11:20N 51°57' E 004°08'0 0.0
2014-Jul-14 10:32N 51°57' E 004°08'0 0.0
2014-Jul-14 09:29N 51°57' E 004°08'0 0.0
2014-Jul-14 08:26N 51°57' E 004°08'0 0.0
2014-Jul-14 07:26N 51°57' E 004°08'0 0.0
2014-Jul-14 06:26N 51°57' E 004°08'0 0.0
2014-Jul-14 05:26N 51°57' E 004°08'0 0.0
2014-Jul-14 04:26N 51°57' E 004°08'0 0.0
2014-Jul-14 03:32N 51°57' E 004°08'0 0.0
2014-Jul-14 02:29N 51°57' E 004°08'0 0.0
2014-Jul-14 01:14N 51°57' E 004°08'0 0.0
2014-Jul-13 19:29N 51°57' E 004°08'0 0.0
2014-Jul-13 17:26N 51°57' E 004°08'0 0.0
2014-Jul-13 16:26N 51°57' E 004°08'0 0.0
2014-Jul-13 15:26N 51°57' E 004°08'0 0.0
2014-Jul-13 14:32N 51°57' E 004°08'0 0.0
2014-Jul-13 13:08N 51°57' E 004°08'0 0.1
2014-Jul-13 11:33N 51°57' E 004°08'6 5.7
2014-Jul-13 10:33N 51°60' E 004°00'9 8.6
2014-Jul-13 09:33N 51°60' E 003°46'9 9.3
2014-Jul-13 08:33N 51°56' E 003°32'2 1.8
2014-Jul-13 07:12N 51°55' E 003°29'0 0.1
2014-Jul-13 05:18N 51°55' E 003°29'0 0.0
2014-Jul-13 01:30N 51°55' E 003°29'0 0.0
2014-Jul-13 00:33N 51°55' E 003°29'0 0.1
2014-Jul-12 23:09N 51°55' E 003°29'0 0.1
2014-Jul-12 22:33N 51°55' E 003°29'0 0.0
2014-Jul-12 20:12N 51°55' E 003°29'0 0.0
2014-Jul-12 19:09N 51°55' E 003°29'0 0.2
2014-Jul-12 18:24N 51°55' E 003°29'0 0.1
2014-Jul-12 17:33N 51°55' E 003°29'0 0.0
2014-Jul-12 16:09N 51°55' E 003°29'0 0.0
2014-Jul-12 14:18N 51°55' E 003°29'0 0.0
2014-Jul-12 12:30N 51°55' E 003°29'0 0.1
2014-Jul-12 11:27N 51°55' E 003°29'0 0.0
2014-Jul-12 03:24N 51°55' E 003°29'0 0.0
2014-Jul-12 02:27N 51°55' E 003°29'0 0.0
2014-Jul-12 01:33N 51°55' E 003°29'0 0.0
2014-Jul-12 00:33N 51°55' E 003°29'0 0.1
2014-Jul-11 23:33N 51°55' E 003°29'0 0.2
2014-Jul-11 22:30N 51°55' E 003°29'1 0.7
2014-Jul-11 21:31N 51°55' E 003°28'6 6.4
2014-Jul-11 20:33N 51°54' E 003°18'2511.7
2014-Jul-11 18:27N 51°46' E 002°40'1111.7
2014-Jul-11 17:32N 51°39' E 002°28'1212.4
2014-Jul-11 16:33N 51°29' E 002°15'1212.4
2014-Jul-11 15:33N 51°18' E 002°07'1211.9
2014-Jul-11 14:34N 51°10' E 001°53'1413.8
2014-Jul-11 13:33N 51°01' E 001°37'3213.9
2014-Jul-11 11:14N 50°34' E 001°08'913.3
2014-Jul-11 10:33N 50°29' E 000°56'1413.5
2014-Jul-11 09:31N 50°25' E 000°35'2114.3
2014-Jul-11 08:05N 50°20' E 000°04'1115.2
2014-Jul-11 07:22N 50°17' W 000°13'1315.7
2014-Jul-11 06:32N 50°14' W 000°32'1716.2
2014-Jul-11 05:30N 50°09' W 000°57'1715.9
2014-Jul-11 04:27N 50°05' W 001°23'  
Track history (hours):
 
Tides and Currents Weather Stations Pressure Air Temp Water Temp Dewpoint Dewpoint Depression Visibility Wind Speed Wind Dir Waves Ship Positions

Alpine Link

Last reported at 2014-Jul-20 01:12 UTC. Time now 2014-Jul-22 07:25 UTC.
Position N 50°20' W 000°59'.

Length 183 m; draft 12.5 m.

Type: Tanker. MMSI: 538003758.

Date/timePositionNaut miles runAvg speedWind from/ knotsBaromVisibWave heightAir tempDewpointWater temp
2014-Jul-20 01:12N 50°20' W 000°59'2312.5
2014-Jul-19 23:23N 50°27' W 000°25'1814.2
2014-Jul-19 22:08N 50°32' E 000°02'914.7
2014-Jul-19 21:29N 50°34' E 000°16'1814.5
2014-Jul-19 20:14N 50°41' E 000°43'1014.0
2014-Jul-19 19:33N 50°46' E 000°55'1312.7
2014-Jul-19 18:33N 50°54' E 001°10'1211.7
2014-Jul-19 17:33N 51°03' E 001°23'1211.9
2014-Jul-19 16:33N 51°10' E 001°38'1312.7
2014-Jul-19 15:34N 51°20' E 001°51'1514.5
2014-Jul-19 14:33N 51°32' E 002°03'1515.3
2014-Jul-19 13:33N 51°44' E 002°20'9313.3
2014-Jul-19 06:33N 53°09' E 003°22'1313.3
2014-Jul-19 05:33N 53°21' E 003°29'1413.8
2014-Jul-19 04:33N 53°34' E 003°36'1313.4
2014-Jul-19 03:33N 53°46' E 003°47'1413.9
2014-Jul-19 02:32N 53°54' E 004°07'1313.4
2014-Jul-19 01:34N 54°01' E 004°26'1313.2
2014-Jul-19 00:33N 54°07' E 004°46'1413.2
2014-Jul-18 23:31N 54°18' E 004°59'1513.4
2014-Jul-18 22:26N 54°30' E 005°13'1313.6
2014-Jul-18 21:29N 54°42' E 005°23'1313.9
2014-Jul-18 20:33N 54°53' E 005°35'1414.0
2014-Jul-18 19:33N 55°05' E 005°47'1413.9
2014-Jul-18 18:34N 55°17' E 005°59'2823.9
2014-Jul-18 17:24N 55°41' E 006°24'1214.2
2014-Jul-18 16:32N 55°51' E 006°36'16012.3
2014-Jul-18 03:26N 57°49' E 009°55'1112.9
2014-Jul-18 02:33N 57°55' E 010°13'1312.9
2014-Jul-18 01:33N 58°02' E 010°34'1313.0
2014-Jul-18 00:32N 58°09' E 010°55'1111.2
2014-Jul-17 23:32N 58°16' E 011°12'0 0.0
2014-Jul-16 09:30N 58°15' E 011°12'1411.4
2014-Jul-16 08:16N 58°08' E 010°50'2413.8
2014-Jul-16 06:33N 57°56' E 010°11'27313.5
2014-Jul-15 10:20N 54°22' E 005°04'1514.4
2014-Jul-15 09:18N 54°10' E 004°51'1314.4
2014-Jul-15 08:24N 53°59' E 004°39'10614.7
2014-Jul-15 01:11N 52°30' E 003°02'1113.7
2014-Jul-15 00:25N 52°21' E 003°11'1113.4
2014-Jul-14 23:33N 52°12' E 003°23'1413.9
2014-Jul-14 22:33N 52°05' E 003°43'10 9.8
2014-Jul-14 21:33N 52°01' E 003°57'8 7.6
2014-Jul-14 20:32N 51°57' E 004°08'0 0.0
2014-Jul-14 19:29N 51°57' E 004°08'0 0.0
2014-Jul-14 18:32N 51°57' E 004°08'0 0.0
2014-Jul-14 17:26N 51°57' E 004°08'0 0.0
2014-Jul-14 16:20N 51°57' E 004°08'0 0.0
2014-Jul-14 15:14N 51°57' E 004°08'0 0.0
2014-Jul-14 14:32N 51°57' E 004°08'0 0.0
2014-Jul-14 13:23N 51°57' E 004°08'0 0.0
2014-Jul-14 12:32N 51°57' E 004°08'0 0.0
2014-Jul-14 11:20N 51°57' E 004°08'0 0.0
2014-Jul-14 10:32N 51°57' E 004°08'0 0.0
2014-Jul-14 09:29N 51°57' E 004°08'0 0.0
2014-Jul-14 08:26N 51°57' E 004°08'0 0.0
2014-Jul-14 07:26N 51°57' E 004°08'0 0.0
2014-Jul-14 06:26N 51°57' E 004°08'0 0.0
2014-Jul-14 05:26N 51°57' E 004°08'0 0.0
2014-Jul-14 04:26N 51°57' E 004°08'0 0.0
2014-Jul-14 03:32N 51°57' E 004°08'0 0.0
2014-Jul-14 02:29N 51°57' E 004°08'0 0.0
2014-Jul-14 01:14N 51°57' E 004°08'0 0.0
2014-Jul-13 19:29N 51°57' E 004°08'0 0.0
2014-Jul-13 17:26N 51°57' E 004°08'0 0.0
2014-Jul-13 16:26N 51°57' E 004°08'0 0.0
2014-Jul-13 15:26N 51°57' E 004°08'0 0.0
2014-Jul-13 14:32N 51°57' E 004°08'0 0.0
2014-Jul-13 13:08N 51°57' E 004°08'0 0.1
2014-Jul-13 11:33N 51°57' E 004°08'6 5.7
2014-Jul-13 10:33N 51°60' E 004°00'9 8.6
2014-Jul-13 09:33N 51°60' E 003°46'9 9.3
2014-Jul-13 08:33N 51°56' E 003°32'2 1.8
2014-Jul-13 07:12N 51°55' E 003°29'0 0.1
2014-Jul-13 05:18N 51°55' E 003°29'0 0.0
2014-Jul-13 01:30N 51°55' E 003°29'0 0.0
2014-Jul-13 00:33N 51°55' E 003°29'0 0.1
2014-Jul-12 23:09N 51°55' E 003°29'0 0.1
2014-Jul-12 22:33N 51°55' E 003°29'0 0.0
2014-Jul-12 20:12N 51°55' E 003°29'0 0.0
2014-Jul-12 19:09N 51°55' E 003°29'0 0.2
2014-Jul-12 18:24N 51°55' E 003°29'0 0.1
2014-Jul-12 17:33N 51°55' E 003°29'0 0.0
2014-Jul-12 16:09N 51°55' E 003°29'0 0.0
2014-Jul-12 14:18N 51°55' E 003°29'0 0.0
2014-Jul-12 12:30N 51°55' E 003°29'0 0.1
2014-Jul-12 11:27N 51°55' E 003°29'0 0.0
2014-Jul-12 03:24N 51°55' E 003°29'0 0.0
2014-Jul-12 02:27N 51°55' E 003°29'0 0.0
2014-Jul-12 01:33N 51°55' E 003°29'0 0.0
2014-Jul-12 00:33N 51°55' E 003°29'0 0.1
2014-Jul-11 23:33N 51°55' E 003°29'0 0.2
2014-Jul-11 22:30N 51°55' E 003°29'1 0.7
2014-Jul-11 21:31N 51°55' E 003°28'6 6.4
2014-Jul-11 20:33N 51°54' E 003°18'2511.7
2014-Jul-11 18:27N 51°46' E 002°40'1111.7
2014-Jul-11 17:32N 51°39' E 002°28'1212.4
2014-Jul-11 16:33N 51°29' E 002°15'1212.4
2014-Jul-11 15:33N 51°18' E 002°07'1211.9
2014-Jul-11 14:34N 51°10' E 001°53'1413.8
2014-Jul-11 13:33N 51°01' E 001°37'3213.9
2014-Jul-11 11:14N 50°34' E 001°08'913.3
2014-Jul-11 10:33N 50°29' E 000°56'1413.5
2014-Jul-11 09:31N 50°25' E 000°35'2114.3
2014-Jul-11 08:05N 50°20' E 000°04'1115.2
2014-Jul-11 07:22N 50°17' W 000°13'1315.7
2014-Jul-11 06:32N 50°14' W 000°32'1716.2
2014-Jul-11 05:30N 50°09' W 000°57'1715.9
2014-Jul-11 04:27N 50°05' W 001°23'  

Dump ship's entire track history